Latest Weather Observations for Lockhart River

IDQ60801

Issued at 3:22 pm EST Monday 30 March 2020 (issued every 10 minutes, with the page automatically refreshed every 10 minutes)

About weather observations | Map of weather stations | Latest weather observations for QLD | Other Formats
Station Details ID: 028008 Name: LOCKHART RIVER AIRPORT Lat: -12.79 Lon: 143.30 Height: 18.5 m
Data from the previous 72 hours. | See also: Recent months at Lockhart River
Date/Time
EST
Temp
°C
App
Temp
°C
Dew
Point
°C
Rel
Hum
%
Delta-T
°C
Wind Press
QNH
hPa
Press
MSL
hPa
Rain since
9am
mm
Dir  Spd
km/h
Gust
km/h
Spd
kts
Gust
kts
30/03:00pm 28.2 29.6 24.8 82 2.4 ESE 26 37 14 20 1007.0 1006.9 2.6
30/02:30pm 29.8 31.6 24.9 75 3.4 SE 24 32 13 17 1007.3 1007.2 2.6
30/02:00pm 29.4 31.5 25.4 79 2.8 SE 24 35 13 19 1007.5 1007.4 2.6
30/01:51pm 29.0 30.8 24.8 78 2.9 ESE 24 37 13 20 1007.5 1007.4 2.6
30/01:30pm 28.5 32.3 26.5 89 1.4 SE 19 26 10 14 1007.9 1007.8 2.6
30/01:17pm 28.4 32.3 26.6 90 1.3 SE 19 26 10 14 1008.1 1008.0 2.4
30/01:14pm 28.3 32.4 26.3 89 1.4 SE 17 24 9 13 1008.2 1008.1 2.4
30/01:00pm 27.2 30.1 26.0 93 0.9 SE 22 32 12 17 1008.4 1008.3 2.4
30/12:54pm 26.9 28.4 24.9 89 1.4 SE 26 32 14 17 1008.5 1008.4 2.0
30/12:30pm 29.4 32.8 26.2 83 2.3 ESE 20 30 11 16 1008.7 1008.6 0.8
30/12:00pm 29.6 32.8 25.8 80 2.7 SE 20 30 11 16 1009.2 1009.1 0.2
30/11:30am 29.1 31.3 24.9 78 2.9 ESE 22 32 12 17 1009.8 1009.7 0.0
30/11:00am 29.8 32.6 24.9 75 3.4 ESE 19 26 10 14 1010.1 1010.0 0.0
30/10:30am 28.8 31.6 25.0 80 2.7 ESE 19 30 10 16 1010.3 1010.2 0.0
30/10:00am 28.9 31.0 24.7 78 2.9 ESE 22 33 12 18 1010.2 1010.1 0.0
30/09:30am 28.1 32.2 25.7 87 1.7 SE 15 20 8 11 1010.1 1010.0 0.0
30/09:00am 26.8 30.8 25.6 93 0.8 SE 15 20 8 11 1010.1 1010.0 37.0
30/08:56am 26.4 30.1 25.2 93 0.8 SE 15 20 8 11 1010.0 1009.9 37.0
30/08:45am 26.0 29.5 25.5 97 0.4 SE 17 26 9 14 1010.0 1009.9 37.0
30/08:32am 25.6 29.8 25.3 98 0.2 SSE 13 20 7 11 1009.9 1009.8 37.0
30/08:30am 25.5 30.1 25.3 99 0.1 SSE 11 20 6 11 1009.9 1009.8 36.8
30/08:00am 25.2 29.9 25.0 99 0.1 SSE 9 15 5 8 1009.7 1009.6 36.2
30/07:56am 25.1 29.8 24.9 99 0.1 SSE 9 15 5 8 1009.7 1009.6 36.2
30/07:30am 24.8 28.5 24.5 98 0.2 SSE 13 20 7 11 1009.1 1009.0 36.2
30/07:02am 24.9 27.9 24.6 98 0.2 SSE 17 22 9 12 1008.8 1008.7 36.2
30/07:00am 24.9 27.9 24.6 98 0.2 SSE 17 22 9 12 1008.8 1008.7 36.2
30/06:40am 24.8 28.9 24.6 99 0.1 S 11 17 6 9 1008.5 1008.4 36.2
30/06:30am 24.7 29.1 24.5 99 0.1 S 9 13 5 7 1008.3 1008.2 36.0
30/06:07am 24.8 29.8 24.8 100 0.0 S 7 9 4 5 1008.2 1008.1 36.0
30/06:00am 24.9 30.0 24.9 100 0.0 SSE 7 11 4 6 1008.2 1008.1 36.0
30/05:31am 24.7 31.0 24.7 100 0.0 CALM 0 9 0 5 1007.9 1007.8 35.8
30/05:30am 24.7 31.0 24.7 100 0.0 CALM 0 0 0 0 1007.8 1007.7 35.8
30/05:17am 24.6 30.8 24.6 100 0.0 CALM 0 0 0 0 1007.5 1007.4 35.8
30/05:00am 24.5 30.6 24.5 100 0.0 CALM 0 0 0 0 1007.6 1007.5 35.8
30/04:44am 24.6 29.5 24.4 99 0.1 SW 6 9 3 5 1007.7 1007.6 35.8
30/04:34am 24.8 31.0 24.6 99 0.1 CALM 0 0 0 0 1007.7 1007.6 35.8
30/04:30am 24.8 31.0 24.6 99 0.1 CALM 0 0 0 0 1007.7 1007.6 35.8
30/04:21am 24.8 31.0 24.6 99 0.1 CALM 0 0 0 0 1007.7 1007.6 35.8
30/04:13am 24.7 30.5 24.5 99 0.1 SE 2 7 1 4 1007.8 1007.7 35.4
30/04:04am 24.7 30.6 24.7 100 0.0 ESE 2 9 1 5 1007.9 1007.8 35.4
30/04:00am 24.7 29.8 24.7 100 0.0 ESE 6 17 3 9 1007.9 1007.8 35.2
30/03:46am 24.7 30.6 24.7 100 0.0 SSE 2 7 1 4 1008.2 1008.1 31.6
30/03:45am 24.7 31.0 24.7 100 0.0 CALM 0 7 0 4 1008.2 1008.1 31.0
30/03:30am 24.8 30.0 24.8 100 0.0 SSE 6 7 3 4 1008.0 1007.9 29.8
30/03:27am 24.8 30.0 24.8 100 0.0 SSE 6 9 3 5 1008.0 1007.9 29.8
30/03:00am 24.7 31.0 24.7 100 0.0 CALM 0 0 0 0 1008.1 1008.0 29.6
30/02:54am 24.6 30.4 24.6 100 0.0 SSE 2 7 1 4 1008.0 1007.9 29.4
30/02:30am 24.6 29.7 24.6 100 0.0 S 6 11 3 6 1008.2 1008.1 27.6
30/02:00am 24.6 29.7 24.6 100 0.0 SSE 6 11 3 6 1008.4 1008.3 22.6
30/01:55am 24.6 29.1 24.6 100 0.0 SSE 9 13 5 7 1008.5 1008.4 21.2
30/01:45am 24.8 29.3 24.6 99 0.1 SE 9 19 5 10 1008.6 1008.5 20.2
30/01:30am 24.5 26.7 24.3 99 0.1 ESE 20 30 11 16 1008.8 1008.7 17.4
30/01:00am 24.8 28.5 24.5 98 0.2 SE 13 17 7 9 1009.1 1009.0 7.8
30/12:58am 24.8 28.7 24.3 97 0.3 ESE 11 15 6 8 1009.0 1008.9 7.4
30/12:53am 24.7 29.0 24.2 97 0.3 ESE 9 15 5 8 1009.0 1008.9 7.0
30/12:43am 24.7 28.3 23.8 95 0.6 ESE 11 19 6 10 1009.1 1009.0 5.6
30/12:33am 24.8 27.4 23.9 95 0.6 ESE 17 30 9 16 1009.2 1009.1 5.2
30/12:30am 24.8 27.0 23.9 95 0.6 ESE 19 30 10 16 1009.3 1009.2 5.2
30/12:10am 25.4 26.6 24.5 95 0.6 ESE 26 39 14 21 1009.7 1009.6 3.8
30/12:08am 25.5 27.2 24.6 95 0.6 ESE 24 39 13 21 1009.7 1009.6 3.8
30/12:04am 25.9 28.9 24.7 93 0.8 SE 17 39 9 21 1009.7 1009.6 3.6
30/12:00am 26.5 31.6 25.5 94 0.7 SE 9 22 5 12 1009.5 1009.4 3.2
 
Date/Time
EST
Temp
°C
App
Temp
°C
Dew
Point
°C
Rel
Hum
%
Delta-T
°C
Wind Press
QNH
hPa
Press
MSL
hPa
Rain since
9am
mm
Dir  Spd
km/h
Gust
km/h
Spd
kts
Gust
kts
29/11:30pm 26.4 31.4 25.4 94 0.7 SE 9 11 5 6 1009.7 1009.6 3.2
29/11:23pm 26.4 31.8 25.4 94 0.7 SE 7 11 4 6 1009.7 1009.6 3.2
29/11:00pm 26.4 30.8 25.0 92 1.0 ESE 11 17 6 9 1009.8 1009.7 3.2
29/10:48pm 26.2 30.7 25.2 94 0.7 ESE 11 17 6 9 1009.8 1009.7 3.2
29/10:30pm 26.2 30.9 25.5 96 0.5 ESE 11 20 6 11 1010.0 1009.9 3.2
29/10:11pm 25.7 31.1 25.4 98 0.2 SE 7 9 4 5 1010.0 1009.9 3.2
29/10:00pm 25.5 30.2 25.0 97 0.3 SE 9 13 5 7 1010.1 1010.0 3.2
29/09:55pm 25.5 29.7 24.8 96 0.5 ESE 11 17 6 9 1010.0 1009.9 3.2
29/09:35pm 25.7 30.4 25.0 96 0.5 SSE 9 35 5 19 1010.2 1010.1 2.4
29/09:30pm 26.0 32.6 25.3 96 0.5 CALM 0 0 0 0 1009.8 1009.7 0.8
29/09:23pm 25.9 32.4 25.0 95 0.6 CALM 0 0 0 0 1009.7 1009.6 0.8
29/09:06pm 26.0 31.2 25.1 95 0.6 SE 7 9 4 5 1009.7 1009.6 0.8
29/09:00pm 26.0 30.8 25.1 95 0.6 SSE 9 9 5 5 1009.7 1009.6 0.8
29/08:51pm 26.1 31.0 25.2 95 0.6 SE 9 15 5 8 1009.7 1009.6 0.8
29/08:30pm 25.8 30.6 25.1 96 0.5 SE 9 13 5 7 1009.7 1009.6 0.8
29/08:29pm 25.8 30.7 25.3 97 0.3 SE 9 13 5 7 1009.6 1009.5 0.8
29/08:28pm 25.9 30.9 25.4 97 0.4 SE 9 13 5 7 1009.6 1009.5 0.8
29/08:00pm 25.6 29.6 25.1 97 0.3 SSE 13 15 7 8 1009.2 1009.1 0.8
29/07:53pm 25.6 29.6 25.1 97 0.3 SSE 13 15 7 8 1009.1 1009.0 0.8
29/07:30pm 25.5 29.2 24.6 95 0.6 SSE 13 20 7 11 1008.7 1008.6 0.8
29/07:00pm 25.9 29.1 25.0 95 0.6 ESE 17 26 9 14 1008.3 1008.2 0.8
29/06:47pm 25.9 29.3 24.7 93 0.8 ESE 15 22 8 12 1008.1 1008.0 0.8
29/06:30pm 26.0 29.7 24.6 92 1.0 ESE 13 19 7 10 1007.9 1007.8 0.8
29/06:21pm 26.1 28.6 24.5 91 1.1 ESE 19 30 10 16 1007.8 1007.7 0.8
29/06:05pm 26.3 29.2 25.1 93 0.8 E 19 28 10 15 1007.7 1007.6 0.8
29/06:00pm 26.3 29.7 24.7 91 1.1 E 15 22 8 12 1007.6 1007.5 0.4
29/05:38pm 26.6 30.0 24.1 86 1.7 ENE 13 22 7 12 1007.4 1007.3 0.2
29/05:30pm 27.4 31.1 24.5 84 2.0 E 13 19 7 10 1007.2 1007.1 0.0
29/05:00pm 27.8 31.7 24.8 84 2.1 E 13 20 7 11 1007.2 1007.1 0.0
29/04:30pm 28.5 31.0 24.5 79 2.8 ESE 19 26 10 14 1007.0 1006.9 0.0
29/04:20pm 28.3 30.8 24.5 80 2.6 ESE 19 30 10 16 1006.9 1006.8 0.0
29/04:06pm 28.6 31.2 24.6 79 2.8 ESE 19 32 10 17 1006.8 1006.7 0.0
29/04:00pm 29.5 33.2 25.7 80 2.7 ESE 17 28 9 15 1006.8 1006.7 0.0
29/03:30pm 29.1 31.4 24.4 76 3.3 ESE 20 32 11 17 1006.9 1006.8 0.0
29/03:00pm 29.5 31.4 24.4 74 3.6 ESE 22 32 12 17 1007.0 1006.9 0.0
29/02:30pm 29.9 32.6 25.0 75 3.4 ESE 20 32 11 17 1007.2 1007.1 0.0
29/02:00pm 29.9 32.9 25.2 76 3.3 ESE 19 28 10 15 1007.4 1007.3 0.0
29/01:30pm 28.7 29.1 23.8 75 3.4 ESE 28 41 15 22 1007.9 1007.8 0.0
29/01:00pm 29.2 31.2 24.5 76 3.3 ESE 22 32 12 17 1008.2 1008.1 0.0
29/12:30pm 29.4 30.9 24.3 74 3.5 ESE 24 32 13 17 1008.7 1008.6 0.0
29/12:00pm 29.3 30.8 24.4 75 3.4 ESE 24 35 13 19 1009.1 1009.0 0.0
29/11:30am 29.1 31.3 24.9 78 2.9 ESE 22 33 12 18 1009.7 1009.6 0.0
29/11:00am 29.3 31.1 24.8 77 3.2 ESE 24 33 13 18 1009.9 1009.8 0.0
29/10:30am 29.2 30.9 24.7 77 3.1 ESE 24 35 13 19 1010.0 1009.9 0.0
29/10:00am 29.6 32.6 25.6 79 2.8 ESE 20 33 11 18 1010.1 1010.0 0.0
29/09:30am 29.2 31.3 24.7 77 3.1 ESE 22 39 12 21 1010.1 1010.0 0.0
29/09:00am 28.9 32.2 25.7 83 2.3 ESE 19 30 10 16 1009.9 1009.8 24.2
29/08:54am 28.6 33.5 25.8 85 2.0 SE 11 24 6 13 1009.8 1009.7 24.2
29/08:30am 27.0 31.7 25.0 89 1.4 SSE 9 11 5 6 1009.6 1009.5 24.2
29/08:00am 26.3 31.0 24.9 92 1.0 SSE 9 13 5 7 1009.4 1009.3 24.2
29/07:30am 25.6 31.5 25.4 99 0.1 S 4 11 2 6 1009.1 1009.0 24.2
29/07:00am 25.0 31.5 25.0 100 0.0 CALM 0 0 0 0 1008.6 1008.5 24.2
29/06:30am 24.5 30.5 24.3 99 0.1 CALM 0 0 0 0 1008.3 1008.2 24.2
29/06:26am 24.4 30.4 24.2 99 0.1 CALM 0 0 0 0 1008.2 1008.1 24.2
29/06:00am 24.5 30.5 24.3 99 0.1 CALM 0 0 0 0 1008.3 1008.2 24.2
29/05:38am 24.6 30.6 24.3 98 0.2 CALM 0 0 0 0 1008.2 1008.1 24.2
29/05:30am 24.6 30.6 24.3 98 0.2 CALM 0 0 0 0 1008.0 1007.9 24.2
29/05:23am 24.7 30.8 24.4 98 0.2 CALM 0 0 0 0 1007.9 1007.8 24.2
29/05:19am 24.7 30.8 24.4 98 0.2 CALM 0 0 0 0 1007.9 1007.8 24.2
29/05:00am 24.7 30.8 24.4 98 0.2 CALM 0 0 0 0 1007.8 1007.7 24.2
29/04:54am 24.6 30.6 24.3 98 0.2 CALM 0 0 0 0 1007.8 1007.7 24.2
29/04:30am 24.8 30.8 24.3 97 0.3 CALM 0 0 0 0 1007.7 1007.6 24.2
29/04:23am 24.8 30.8 24.3 97 0.3 CALM 0 0 0 0 1007.7 1007.6 24.2
29/04:00am 25.0 31.1 24.5 97 0.3 CALM 0 0 0 0 1007.6 1007.5 24.2
29/03:30am 25.3 30.2 24.6 96 0.5 SSE 7 11 4 6 1007.6 1007.5 24.2
29/03:00am 25.5 29.8 24.3 93 0.8 S 9 13 5 7 1007.8 1007.7 24.0
29/02:54am 25.9 30.2 24.3 91 1.1 S 9 13 5 7 1007.8 1007.7 23.2
29/02:30am 26.2 30.3 24.6 91 1.1 SE 11 15 6 8 1007.9 1007.8 23.2
29/02:00am 26.1 30.2 24.5 91 1.1 SE 11 15 6 8 1008.3 1008.2 23.2
29/01:30am 26.1 29.9 24.7 92 1.0 SE 13 17 7 9 1008.5 1008.4 23.2
29/01:00am 26.1 30.0 24.9 93 0.8 SE 13 17 7 9 1008.8 1008.7 23.2
29/12:30am 25.9 30.5 25.4 97 0.4 SE 11 15 6 8 1009.1 1009.0 23.2
29/12:18am 25.5 30.8 25.2 98 0.2 SSE 7 9 4 5 1009.1 1009.0 23.2
29/12:00am 25.2 29.9 24.9 98 0.2 SE 9 13 5 7 1009.1 1009.0 23.2
 
Date/Time
EST
Temp
°C
App
Temp
°C
Dew
Point
°C
Rel
Hum
%
Delta-T
°C
Wind Press
QNH
hPa
Press
MSL
hPa
Rain since
9am
mm
Dir  Spd
km/h
Gust
km/h
Spd
kts
Gust
kts
28/11:35pm 24.7 30.8 24.5 99 0.1 CALM 0 0 0 0 1008.9 1008.8 23.0
28/11:30pm 24.7 30.8 24.5 99 0.1 CALM 0 0 0 0 1008.9 1008.8 23.0
28/11:00pm 24.5 30.5 24.2 98 0.2 CALM 0 0 0 0 1009.2 1009.1 23.0
28/10:30pm 24.5 30.5 24.2 98 0.2 CALM 0 0 0 0 1009.3 1009.2 23.0
28/10:00pm 24.8 30.7 24.1 96 0.5 CALM 0 0 0 0 1009.2 1009.1 23.0
28/09:30pm 24.9 30.7 24.0 95 0.6 CALM 0 0 0 0 1009.3 1009.2 23.0
28/09:00pm 25.1 28.9 24.1 94 0.7 SSE 11 13 6 7 1009.0 1008.9 23.0
28/08:30pm 25.1 29.4 24.2 95 0.6 SSE 9 13 5 7 1009.0 1008.9 23.0
28/08:00pm 25.2 30.0 24.2 94 0.7 SSE 6 7 3 4 1008.6 1008.5 23.0
28/07:30pm 25.3 29.6 24.3 94 0.7 SSE 9 11 5 6 1008.3 1008.2 23.0
28/07:00pm 25.5 30.2 24.3 93 0.8 SSE 7 9 4 5 1008.1 1008.0 23.0
28/06:30pm 25.9 30.2 24.3 91 1.1 SSE 9 11 5 6 1008.1 1008.0 23.0
28/06:00pm 26.1 30.4 24.3 90 1.2 SE 9 13 5 7 1007.6 1007.5 23.0
28/05:30pm 26.3 29.6 24.5 90 1.2 SE 15 22 8 12 1007.6 1007.5 23.0
28/05:29pm 26.3 29.6 24.5 90 1.2 SE 15 22 8 12 1007.6 1007.5 23.0
28/05:02pm 26.4 30.8 25.0 92 1.0 SSE 11 17 6 9 1007.5 1007.4 23.0
28/05:00pm 26.4 30.9 25.2 93 0.8 SSE 11 15 6 8 1007.5 1007.4 23.0
28/04:30pm 26.1 30.5 25.1 94 0.7 SSE 11 15 6 8 1007.3 1007.2 23.0
28/04:09pm 25.7 29.9 24.7 94 0.7 SE 11 17 6 9 1007.5 1007.4 23.0
28/04:00pm 25.5 29.2 24.5 94 0.7 SE 13 19 7 10 1007.5 1007.4 23.0
28/03:37pm 25.4 27.9 24.5 95 0.6 SE 19 26 10 14 1007.7 1007.6 23.0
28/03:30pm 25.3 28.0 24.8 97 0.3 SE 19 28 10 15 1007.8 1007.7 23.0
28/03:07pm 25.1 27.6 24.4 96 0.5 SE 19 37 10 20 1007.9 1007.8 22.8
28/03:00pm 25.8 30.0 25.3 97 0.4 SSE 13 22 7 12 1008.0 1007.9 22.0
28/02:30pm 25.5 31.0 25.3 99 0.1 ESE 6 15 3 8 1008.4 1008.3 22.0
28/02:00pm 25.1 29.4 24.9 99 0.1 S 11 15 6 8 1008.8 1008.7 21.8
28/01:35pm 24.8 28.5 24.6 99 0.1 SSE 13 19 7 10 1009.3 1009.2 21.4
28/01:30pm 24.8 28.5 24.6 99 0.1 SSE 13 17 7 9 1009.4 1009.3 21.2
28/01:17pm 24.4 27.9 24.2 99 0.1 SSE 13 17 7 9 1009.6 1009.5 20.8
28/01:07pm 24.3 27.7 24.1 99 0.1 SSE 13 17 7 9 1009.7 1009.6 19.8
28/01:03pm 24.4 27.5 24.2 99 0.1 SSE 15 20 8 11 1009.8 1009.7 19.4
28/01:00pm 24.4 27.5 24.2 99 0.1 SSE 15 20 8 11 1009.9 1009.8 19.2
28/12:30pm 24.3 26.0 24.1 99 0.1 SE 22 32 12 17 1010.4 1010.3 15.0
28/12:00pm 24.9 27.3 24.6 98 0.2 SE 20 28 11 15 1010.5 1010.4 8.4
28/11:53am 25.1 27.3 24.8 98 0.2 SE 22 28 12 15 1010.5 1010.4 6.6
28/11:30am 25.3 27.2 24.4 95 0.6 SE 22 32 12 17 1010.5 1010.4 5.0
28/11:01am 27.3 28.4 24.9 87 1.7 E 28 41 15 22 1010.6 1010.5 4.6
28/11:00am 27.3 28.4 24.9 87 1.7 E 28 41 15 22 1010.6 1010.5 4.6
28/10:30am 27.4 31.0 25.6 90 1.3 ESE 17 26 9 14 1010.7 1010.6 4.6
28/10:23am 26.5 30.0 25.5 94 0.7 ESE 17 26 9 14 1010.7 1010.6 4.6
28/10:16am 26.1 28.9 25.2 95 0.6 ESE 20 33 11 18 1010.8 1010.7 4.6
28/10:03am 25.7 28.5 25.2 97 0.3 SE 20 32 11 17 1010.9 1010.8 4.2
28/10:00am 25.5 28.3 25.0 97 0.3 SE 19 32 10 17 1010.9 1010.8 4.2
28/09:58am 25.5 28.2 24.8 96 0.5 ESE 19 32 10 17 1011.0 1010.9 3.8
28/09:51am 25.4 26.9 24.4 94 0.7 E 24 41 13 22 1011.0 1010.9 2.6
28/09:48am 25.3 26.9 23.9 92 1.0 E 22 41 12 22 1011.0 1010.9 2.4
28/09:30am 25.3 28.8 24.8 97 0.3 SSE 15 24 8 13 1011.0 1010.9 1.6
28/09:15am 25.9 30.1 25.4 97 0.4 SSE 13 19 7 10 1010.6 1010.5 0.0
28/09:00am 25.3 29.5 24.8 97 0.3 SSE 11 17 6 9 1010.5 1010.4 13.4
28/08:56am 25.4 29.7 24.9 97 0.3 SSE 11 17 6 9 1010.5 1010.4 13.4
28/08:30am 24.9 28.4 24.2 96 0.5 SSE 13 17 7 9 1010.4 1010.3 13.0
28/08:27am 25.0 28.9 24.3 96 0.5 SSE 11 15 6 8 1010.3 1010.2 13.0
28/08:00am 24.7 29.1 24.4 98 0.2 SSE 9 15 5 8 1009.9 1009.8 13.0
28/07:40am 24.6 28.5 24.3 98 0.2 S 11 15 6 8 1009.8 1009.7 13.0
28/07:30am 24.7 28.8 24.5 99 0.1 S 11 13 6 7 1009.8 1009.7 13.0
28/07:13am 24.6 29.0 24.4 99 0.1 SSE 9 13 5 7 1009.9 1009.8 12.8
28/07:00am 24.6 28.2 24.3 98 0.2 S 13 20 7 11 1009.7 1009.6 12.8
28/06:56am 24.6 28.2 24.3 98 0.2 SSE 13 20 7 11 1009.6 1009.5 12.6
28/06:30am 24.8 29.7 24.3 97 0.3 S 6 7 3 4 1009.3 1009.2 11.2
28/06:00am 24.9 29.5 24.2 96 0.5 S 7 13 4 7 1008.9 1008.8 11.0
28/05:30am 25.1 29.4 24.2 95 0.6 SSE 9 11 5 6 1008.6 1008.5 11.0
28/05:00am 25.2 29.3 24.5 96 0.5 SSE 11 15 6 8 1008.5 1008.4 11.0
28/04:57am 25.2 29.3 24.5 96 0.5 SSE 11 15 6 8 1008.6 1008.5 11.0
28/04:30am 25.0 31.1 24.5 97 0.3 CALM 0 0 0 0 1008.5 1008.4 11.0
28/04:00am 25.1 30.6 24.6 97 0.3 S 4 9 2 5 1008.3 1008.2 11.0
28/03:56am 25.1 30.2 24.6 97 0.3 S 6 9 3 5 1008.3 1008.2 11.0
28/03:30am 25.3 30.2 24.4 95 0.6 SE 6 9 3 5 1008.2 1008.1 11.0
28/03:00am 25.5 30.4 24.6 95 0.6 SSE 7 15 4 8 1008.5 1008.4 11.0
28/02:30am 25.8 29.3 24.9 95 0.6 SSE 15 20 8 11 1008.7 1008.6 10.8
28/02:18am 25.9 30.8 25.2 96 0.5 ESE 9 13 5 7 1008.6 1008.5 10.8
28/02:00am 25.5 31.3 25.2 98 0.2 ESE 4 11 2 6 1008.9 1008.8 10.8
28/01:45am 25.4 31.8 24.9 97 0.3 CALM 0 0 0 0 1009.1 1009.0 10.8
28/01:30am 25.4 31.8 24.9 97 0.3 CALM 0 0 0 0 1009.4 1009.3 10.8
28/01:11am 25.4 30.6 25.1 98 0.2 SE 7 11 4 6 1009.8 1009.7 10.8
28/01:00am 25.3 30.6 25.0 98 0.2 SSE 6 13 3 7 1009.9 1009.8 10.8
28/12:40am 25.1 31.4 24.8 98 0.2 CALM 0 7 0 4 1009.7 1009.6 10.8
28/12:30am 25.1 30.3 24.8 98 0.2 SSE 6 9 3 5 1009.8 1009.7 10.8
28/12:00am 25.0 29.9 24.3 96 0.5 S 6 7 3 4 1009.9 1009.8 10.8
 
Date/Time
EST
Temp
°C
App
Temp
°C
Dew
Point
°C
Rel
Hum
%
Delta-T
°C
Wind Press
QNH
hPa
Press
MSL
hPa
Rain since
9am
mm
Dir  Spd
km/h
Gust
km/h
Spd
kts
Gust
kts
27/11:30pm 25.5 30.0 24.6 95 0.6 SSE 9 11 5 6 1010.4 1010.3 10.8
27/11:00pm 25.8 29.3 24.2 91 1.1 SE 13 20 7 11 1010.5 1010.4 10.8
27/10:46pm 26.2 31.1 25.3 95 0.6 SE 9 20 5 11 1010.6 1010.5 10.8
27/10:36pm 25.9 31.2 25.2 96 0.5 SSE 7 11 4 6 1010.6 1010.5 10.6
27/10:30pm 25.8 31.0 25.1 96 0.5 SE 7 9 4 5 1010.7 1010.6 10.6
27/10:00pm 25.8 30.6 25.1 96 0.5 SE 9 13 5 7 1010.5 1010.4 10.6
27/09:30pm 25.7 30.7 25.4 98 0.2 SSE 9 13 5 7 1010.5 1010.4 10.6
27/09:00pm 25.9 31.0 25.6 98 0.2 SE 9 11 5 6 1010.2 1010.1 10.6
27/08:53pm 25.8 30.9 25.5 98 0.2 SE 9 17 5 9 1010.2 1010.1 10.6
27/08:30pm 25.6 29.3 25.1 97 0.3 ESE 15 24 8 13 1010.0 1009.9 10.4
27/08:20pm 25.4 29.3 24.9 97 0.3 ESE 13 28 7 15 1009.9 1009.8 10.2
27/08:02pm 25.3 28.0 24.8 97 0.3 SE 19 26 10 14 1009.7 1009.6 9.6
27/08:00pm 25.4 28.6 24.9 97 0.3 SE 17 26 9 14 1009.7 1009.6 9.4
27/07:47pm 25.3 28.3 24.6 96 0.5 SE 17 20 9 11 1009.5 1009.4 9.4
27/07:30pm 25.4 28.1 24.7 96 0.5 ESE 19 33 10 18 1009.2 1009.1 9.2
27/07:26pm 25.4 29.3 24.9 97 0.3 ESE 13 28 7 15 1009.3 1009.2 8.0
27/07:25pm 25.4 29.7 24.9 97 0.3 SE 11 28 6 15 1009.4 1009.3 7.0
27/07:00pm 25.9 29.8 24.9 94 0.7 ESE 13 22 7 12 1009.0 1008.9 3.6
27/06:59pm 25.9 30.1 24.7 93 0.8 ESE 11 20 6 11 1009.0 1008.9 3.0
27/06:54pm 26.1 30.4 24.9 93 0.8 ESE 11 17 6 9 1008.9 1008.8 1.0
27/06:33pm 26.1 30.5 25.1 94 0.7 SSE 11 20 6 11 1008.7 1008.6 1.0
27/06:30pm 26.1 30.0 24.9 93 0.8 SSE 13 17 7 9 1008.8 1008.7 1.0
27/06:00pm 26.4 30.8 25.0 92 1.0 SSE 11 15 6 8 1008.7 1008.6 1.0
27/05:30pm 26.4 30.0 25.0 92 1.0 SE 15 19 8 10 1008.5 1008.4 1.0
27/05:24pm 26.5 30.5 25.1 92 1.0 SE 13 17 7 9 1008.5 1008.4 1.0
27/05:22pm 26.6 30.2 25.0 91 1.1 SE 15 19 8 10 1008.6 1008.5 1.0
27/05:01pm 26.4 28.8 24.6 90 1.2 SE 20 28 11 15 1008.6 1008.5 1.0
27/05:00pm 26.4 28.7 24.4 89 1.4 SE 20 28 11 15 1008.6 1008.5 1.0
27/04:59pm 26.4 28.8 24.2 88 1.5 ESE 19 28 10 15 1008.6 1008.5 1.0
27/04:30pm 27.4 29.8 24.3 83 2.1 E 19 28 10 15 1008.4 1008.3 0.8
27/04:00pm 27.3 29.1 24.2 83 2.1 ESE 22 32 12 17 1008.4 1008.3 0.8
27/03:42pm 27.4 30.1 24.7 85 1.9 ESE 19 32 10 17 1008.3 1008.2 0.8
27/03:30pm 27.3 29.2 24.4 84 2.0 ESE 22 30 12 16 1008.2 1008.1 0.8
27/03:25pm 27.4 29.9 24.8 86 1.8 ESE 20 30 11 16 1008.2 1008.1 0.8

Other formats

Comma delimited format used in spreadsheet applications
http://www.bom.gov.au/fwo/IDQ60801/IDQ60801.94186.axf

JavaScript Object Notation format (JSON) in row-major order
http://www.bom.gov.au/fwo/IDQ60801/IDQ60801.94186.json

Data quality

Most of these data are generated automatically and are frequently updated. Quality checks on data are not normally performed. It is possible for incorrect values to appear. Refer to information at About Latest Weather Observations and please check the disclaimer before using these data.